Time;durP1;ratioP1;P1;durP2;ratioP2;P2;SDS_P1;SDS_P2;PMS_P1;PMS_P2;Temp;Humidity;BMP_temperature;BMP_pressure;BME280_temperature;BME280_humidity;BME280_pressure;Samples;Min_cycle;Max_cycle;Signal;HPM_P1;HPM_P2
2022/02/21 00:00:14;;;;;;;;;;;9.70;99.90;10.20;99889.00;;;;335188;29;88067;-91
2022/02/21 00:00:26;;;;;;;;;;;9.70;99.90;10.20;99885.00;;;;332873;29;83284;-91
2022/02/21 00:00:38;;;;;;;;;;;9.70;99.90;10.20;99889.00;;;;334749;29;91991;-91
2022/02/21 00:00:50;;;;;;;;;;;9.70;99.90;10.10;99884.00;;;;336146;28;83512;-91
2022/02/21 00:01:02;;;;;;;;;;;9.70;99.90;10.10;99883.00;;;;334716;28;91374;-91
2022/02/21 00:01:14;;;;;;;;;;;9.80;99.90;10.10;99895.00;;;;335373;29;83627;-91
2022/02/21 00:01:26;;;;;;;;;;;9.80;99.90;10.10;99889.00;;;;335101;29;90315;-90
2022/02/21 00:01:38;;;;;;;;;;;9.80;99.90;10.10;99893.00;;;;335277;29;83552;-91
2022/02/21 00:01:50;;;;;;;;;;;9.80;99.90;10.10;99889.00;;;;333703;29;90713;-91
2022/02/21 00:02:02;;;;;;;;;;;9.70;99.90;10.10;99886.00;;;;335630;29;82435;-91
2022/02/21 00:02:14;;;;;;;;;;;9.70;99.90;10.10;99892.00;;;;335036;29;91305;-91
2022/02/21 00:02:26;;;;;;;;;;;9.80;99.90;10.10;99881.00;;;;336878;28;83235;-91
2022/02/21 00:02:41;;;;;;;;;;;9.70;99.90;10.00;99883.00;;;;334951;29;90557;-91
2022/02/21 00:02:54;;;;;;;;;;;9.80;99.90;10.00;99896.00;;;;334333;29;83239;-91
2022/02/21 00:03:06;;;;;;;;;;;9.70;99.90;10.10;99888.00;;;;336140;28;90894;-91
2022/02/21 00:03:20;;;;;;;;;;;9.70;99.90;10.10;99893.00;;;;334215;29;83599;-90
2022/02/21 00:03:32;;;;;;;;;;;9.70;99.90;10.00;99880.00;;;;336185;28;89191;-91
2022/02/21 00:03:44;;;;;;;;;;;9.70;99.90;10.20;99886.00;;;;336630;28;83507;-91
2022/02/21 00:03:57;;;;;;;;;;;9.70;99.90;10.10;99882.00;;;;337436;28;91503;-91
2022/02/21 00:04:09;;;;;;;;;;;9.70;99.90;10.10;99880.00;;;;334642;29;83418;-91
2022/02/21 00:04:20;;;;;;;;;;;9.70;99.90;10.10;99881.00;;;;332461;29;90897;-91
2022/02/21 00:04:32;;;;;;;;;;;9.70;99.90;10.20;99887.00;;;;335509;29;83243;-91
2022/02/21 00:04:44;;;;;;;;;;;9.80;99.90;10.20;99887.00;;;;334809;29;93997;-91
2022/02/21 00:04:56;;;;;;;;;;;9.80;99.90;10.20;99881.00;;;;334213;29;83338;-91
2022/02/21 00:05:08;;;;;;;;;;;9.80;99.90;10.30;99881.00;;;;336310;28;91458;-91
2022/02/21 00:05:22;;;;;;;;;;;9.70;99.90;10.30;99891.00;;;;334259;29;83421;-91
2022/02/21 00:05:34;;;;;;;;;;;9.70;99.90;10.20;99876.00;;;;335050;29;91996;-91
2022/02/21 00:05:49;;;;;;;;;;;9.80;99.90;10.20;99882.00;;;;336787;28;83342;-91
2022/02/21 00:06:01;;;;;;;;;;;9.80;99.90;10.20;99880.00;;;;332492;29;88913;-91
2022/02/21 00:06:15;;;;;;;;;;;9.80;99.90;10.30;99881.00;;;;335495;29;83459;-91
2022/02/21 00:06:27;;;;;;;;;;;9.80;99.90;10.30;99872.00;;;;336222;28;90455;-91
2022/02/21 00:06:39;;;;;;;;;;;9.80;99.90;10.20;99876.00;;;;335749;28;85419;-91
2022/02/21 00:06:51;;;;;;;;;;;9.80;99.90;10.20;99882.00;;;;334148;29;91545;-91
2022/02/21 00:07:03;;;;;;;;;;;9.80;99.90;10.20;99883.00;;;;335390;29;83419;-91
2022/02/21 00:07:15;;;;;;;;;;;9.80;99.90;10.20;99887.00;;;;333869;29;90883;-91
2022/02/21 00:07:27;;;;;;;;;;;9.80;99.90;10.20;99880.00;;;;334227;29;83432;-91
2022/02/21 00:07:39;;;;;;;;;;;9.80;99.90;10.20;99874.00;;;;334228;28;91590;-91
2022/02/21 00:07:50;;;;;;;;;;;9.80;99.90;10.20;99876.00;;;;332908;29;83445;-92
2022/02/21 00:08:07;;;;;;;;;;;9.70;99.90;10.20;99886.00;;;;335056;29;91120;-91
2022/02/21 00:08:18;;;;;;;;;;;9.80;99.90;10.30;99880.00;;;;336856;28;83324;-91
2022/02/21 00:08:30;;;;;;;;;;;9.80;99.90;10.20;99879.00;;;;336441;28;87596;-91
2022/02/21 00:08:42;;;;;;;;;;;9.70;99.90;10.20;99878.00;;;;334326;29;82371;-91
2022/02/21 00:08:54;;;;;;;;;;;9.80;99.90;10.10;99872.00;;;;335060;29;91232;-91
2022/02/21 00:09:05;;;;;;;;;;;9.70;99.90;10.10;99875.00;;;;335039;29;82563;-91
2022/02/21 00:09:17;;;;;;;;;;;9.70;99.90;10.10;99883.00;;;;335051;29;90678;-91
2022/02/21 00:09:29;;;;;;;;;;;9.80;99.90;10.10;99877.00;;;;335510;29;82347;-91
2022/02/21 00:09:41;;;;;;;;;;;9.80;99.90;10.10;99876.00;;;;334396;29;88090;-91
2022/02/21 00:09:52;;;;;;;;;;;9.80;99.90;10.10;99879.00;;;;335339;29;83393;-91
2022/02/21 00:10:05;;;;;;;;;;;9.80;99.90;10.10;99876.00;;;;334058;29;90449;-91
2022/02/21 00:10:17;;;;;;;;;;;9.70;99.90;10.10;99876.00;;;;332963;29;82533;-91
2022/02/21 00:10:29;;;;;;;;;;;9.80;99.90;10.10;99885.00;;;;334979;29;91628;-91
2022/02/21 00:10:41;;;;;;;;;;;9.70;99.90;10.10;99876.00;;;;335826;28;83518;-91
2022/02/21 00:10:52;;;;;;;;;;;9.80;99.90;10.10;99874.00;;;;333680;29;91784;-91
2022/02/21 00:11:04;;;;;;;;;;;9.70;99.90;10.10;99880.00;;;;335479;29;83156;-91
2022/02/21 00:11:16;;;;;;;;;;;9.80;99.90;10.10;99879.00;;;;333598;29;91626;-91
2022/02/21 00:11:28;;;;;;;;;;;9.80;99.90;10.10;99886.00;;;;334160;29;83345;-90
2022/02/21 00:11:40;;;;;;;;;;;9.70;99.90;10.00;99878.00;;;;335118;29;90399;-90
2022/02/21 00:11:52;;;;;;;;;;;9.70;99.90;10.00;99873.00;;;;334165;29;83393;-91
2022/02/21 00:12:04;;;;;;;;;;;9.70;99.90;10.00;99875.00;;;;332555;29;90843;-91
2022/02/21 00:12:16;;;;;;;;;;;9.70;99.90;10.00;99880.00;;;;335452;29;83203;-91
2022/02/21 00:12:27;;;;;;;;;;;9.70;99.90;10.00;99883.00;;;;335038;29;90439;-91
2022/02/21 00:12:39;;;;;;;;;;;9.70;99.90;10.10;99878.00;;;;334523;29;83567;-91
2022/02/21 00:12:52;;;;;;;;;;;9.70;99.90;10.00;99874.00;;;;334319;29;92365;-91
2022/02/21 00:13:03;;;;;;;;;;;9.70;99.90;10.10;99883.00;;;;334404;29;83387;-91
2022/02/21 00:13:15;;;;;;;;;;;9.70;99.90;10.00;99884.00;;;;335051;29;91663;-91
2022/02/21 00:13:27;;;;;;;;;;;9.70;99.90;10.00;99882.00;;;;338075;28;83309;-91
2022/02/21 00:13:39;;;;;;;;;;;9.70;99.90;10.10;99883.00;;;;337787;28;90133;-91
2022/02/21 00:13:51;;;;;;;;;;;9.70;99.90;10.10;99882.00;;;;335471;29;83384;-91
2022/02/21 00:14:02;;;;;;;;;;;9.70;99.90;10.10;99883.00;;;;336417;28;91634;-91
2022/02/21 00:14:14;;;;;;;;;;;9.70;99.90;10.10;99884.00;;;;335565;29;82419;-91
2022/02/21 00:14:26;;;;;;;;;;;9.70;99.90;10.10;99881.00;;;;336289;28;91632;-91
2022/02/21 00:14:38;;;;;;;;;;;9.70;99.90;10.10;99875.00;;;;336895;28;82576;-91
2022/02/21 00:14:50;;;;;;;;;;;9.70;99.90;10.10;99880.00;;;;335030;29;91357;-91
2022/02/21 00:15:02;;;;;;;;;;;9.70;99.90;10.00;99876.00;;;;334208;29;82517;-91
2022/02/21 00:15:17;;;;;;;;;;;9.70;99.90;10.10;99881.00;;;;334859;29;90409;-91
2022/02/21 00:15:29;;;;;;;;;;;9.70;99.90;10.10;99894.00;;;;336676;28;83520;-91
2022/02/21 00:15:41;;;;;;;;;;;9.70;99.90;10.00;99883.00;;;;334832;28;91816;-91
2022/02/21 00:15:52;;;;;;;;;;;9.70;99.90;10.00;99887.00;;;;335862;28;83410;-91
2022/02/21 00:16:05;;;;;;;;;;;9.70;99.90;10.10;99876.00;;;;336283;28;91463;-91
2022/02/21 00:16:16;;;;;;;;;;;9.70;99.90;10.00;99886.00;;;;332934;29;83458;-91
2022/02/21 00:16:28;;;;;;;;;;;9.70;99.90;10.10;99878.00;;;;334904;29;91583;-91
2022/02/21 00:16:40;;;;;;;;;;;9.70;99.90;10.10;99877.00;;;;336794;28;83487;-91
2022/02/21 00:16:52;;;;;;;;;;;9.60;99.90;10.10;99877.00;;;;333734;29;92304;-91
2022/02/21 00:17:04;;;;;;;;;;;9.70;99.90;10.10;99874.00;;;;335450;29;83302;-91
2022/02/21 00:17:18;;;;;;;;;;;9.70;99.90;10.20;99881.00;;;;337798;28;88914;-91
2022/02/21 00:17:30;;;;;;;;;;;9.70;99.90;10.10;99875.00;;;;335538;29;83431;-90
2022/02/21 00:17:41;;;;;;;;;;;9.70;99.90;10.10;99876.00;;;;336370;28;91901;-91
2022/02/21 00:17:53;;;;;;;;;;;9.70;99.90;10.10;99875.00;;;;335478;29;83498;-91
2022/02/21 00:18:05;;;;;;;;;;;9.70;99.90;10.10;99877.00;;;;335025;29;91708;-91
2022/02/21 00:18:17;;;;;;;;;;;9.70;99.90;10.10;99873.00;;;;335671;29;82459;-91
2022/02/21 00:18:29;;;;;;;;;;;9.70;99.90;10.10;99875.00;;;;333676;29;90501;-91
2022/02/21 00:18:41;;;;;;;;;;;9.70;99.90;10.10;99874.00;;;;334346;29;83561;-91
2022/02/21 00:18:53;;;;;;;;;;;9.70;99.90;10.20;99876.00;;;;334022;29;92148;-90
2022/02/21 00:19:05;;;;;;;;;;;9.70;99.90;10.20;99869.00;;;;336514;28;83299;-91
2022/02/21 00:19:16;;;;;;;;;;;9.70;99.90;10.20;99870.00;;;;336383;28;91212;-91
2022/02/21 00:19:28;;;;;;;;;;;9.70;99.90;10.10;99869.00;;;;335554;29;82536;-91
2022/02/21 00:19:40;;;;;;;;;;;9.70;99.90;10.10;99870.00;;;;335537;28;90187;-91
2022/02/21 00:19:52;;;;;;;;;;;9.70;99.90;10.10;99869.00;;;;335426;29;83397;-91
2022/02/21 00:20:04;;;;;;;;;;;9.70;99.90;10.10;99873.00;;;;335115;29;91265;-91
2022/02/21 00:20:16;;;;;;;;;;;9.70;99.90;10.00;99873.00;;;;335543;29;83321;-91
2022/02/21 00:20:28;;;;;;;;;;;9.70;99.90;10.00;99871.00;;;;335002;29;89142;-91
2022/02/21 00:20:39;;;;;;;;;;;9.70;99.90;10.10;99879.00;;;;338087;28;83528;-91
2022/02/21 00:20:52;;;;;;;;;;;9.70;99.90;10.10;99872.00;;;;333708;29;90717;-91
2022/02/21 00:21:04;;;;;;;;;;;9.70;99.90;10.20;99882.00;;;;335472;29;83437;-91
2022/02/21 00:21:17;;;;;;;;;;;9.70;99.90;10.10;99877.00;;;;335064;29;92057;-91
2022/02/21 00:21:29;;;;;;;;;;;9.70;99.90;10.10;99877.00;;;;333922;28;82609;-91
2022/02/21 00:21:41;;;;;;;;;;;9.70;99.90;10.10;99871.00;;;;334656;29;91956;-91
2022/02/21 00:21:53;;;;;;;;;;;9.70;99.90;10.10;99878.00;;;;334454;29;83355;-91
2022/02/21 00:22:05;;;;;;;;;;;9.70;99.90;10.10;99866.00;;;;334407;29;90494;-91
2022/02/21 00:22:16;;;;;;;;;;;9.70;99.90;10.10;99869.00;;;;334156;29;83431;-91
2022/02/21 00:22:28;;;;;;;;;;;9.70;99.90;10.10;99875.00;;;;334914;28;91744;-91
2022/02/21 00:22:40;;;;;;;;;;;9.70;99.90;10.10;99883.00;;;;335328;29;82561;-91
2022/02/21 00:22:52;;;;;;;;;;;9.70;99.90;10.20;99877.00;;;;335100;29;92226;-91
2022/02/21 00:23:03;;;;;;;;;;;9.70;99.90;10.10;99869.00;;;;335554;29;82479;-90
2022/02/21 00:23:15;;;;;;;;;;;9.70;99.90;10.10;99879.00;;;;335158;29;89291;-91
2022/02/21 00:23:27;;;;;;;;;;;9.70;99.90;10.10;99874.00;;;;335563;29;82463;-90
2022/02/21 00:23:39;;;;;;;;;;;9.70;99.90;10.10;99871.00;;;;333934;29;90749;-91
2022/02/21 00:23:51;;;;;;;;;;;9.70;99.90;10.10;99879.00;;;;334198;29;83410;-91
2022/02/21 00:24:03;;;;;;;;;;;9.70;99.90;10.00;99876.00;;;;332561;29;91438;-91
2022/02/21 00:24:15;;;;;;;;;;;9.70;99.90;10.00;99874.00;;;;332909;29;83382;-92
2022/02/21 00:24:27;;;;;;;;;;;9.70;99.90;10.00;99876.00;;;;335018;29;92026;-91
2022/02/21 00:24:39;;;;;;;;;;;9.70;99.90;10.00;99880.00;;;;335053;29;82730;-91
2022/02/21 00:24:50;;;;;;;;;;;9.70;99.90;10.00;99878.00;;;;334628;28;91822;-91
2022/02/21 00:25:03;;;;;;;;;;;9.70;99.90;10.00;99874.00;;;;334141;29;82449;-91
2022/02/21 00:25:14;;;;;;;;;;;9.70;99.90;10.00;99874.00;;;;333802;29;89052;-91
2022/02/21 00:25:26;;;;;;;;;;;9.70;99.90;10.00;99880.00;;;;336818;28;82561;-91
2022/02/21 00:25:38;;;;;;;;;;;9.70;99.90;10.00;99875.00;;;;332379;29;91197;-90
2022/02/21 00:25:50;;;;;;;;;;;9.70;99.90;10.00;99878.00;;;;334189;29;83561;-91
2022/02/21 00:26:02;;;;;;;;;;;9.70;99.90;10.10;99864.00;;;;333795;29;90052;-91
2022/02/21 00:26:14;;;;;;;;;;;9.70;99.90;10.10;99866.00;;;;334205;29;83357;-91
2022/02/21 00:26:26;;;;;;;;;;;9.70;99.90;10.10;99861.00;;;;336311;28;90914;-90
2022/02/21 00:26:38;;;;;;;;;;;9.70;99.90;10.10;99860.00;;;;336722;28;83439;-91
2022/02/21 00:26:50;;;;;;;;;;;9.70;99.90;10.10;99858.00;;;;336350;28;92462;-91
2022/02/21 00:27:02;;;;;;;;;;;9.70;99.90;10.00;99863.00;;;;335484;29;83383;-91
2022/02/21 00:27:14;;;;;;;;;;;9.70;99.90;10.00;99853.00;;;;336268;28;91413;-90
2022/02/21 00:27:25;;;;;;;;;;;9.70;99.90;10.00;99860.00;;;;334116;29;83439;-91
2022/02/21 00:27:37;;;;;;;;;;;9.70;99.90;10.10;99852.00;;;;333328;29;91484;-91
2022/02/21 00:27:49;;;;;;;;;;;9.70;99.90;10.10;99849.00;;;;332966;29;83484;-91
2022/02/21 00:28:01;;;;;;;;;;;9.70;99.90;10.10;99854.00;;;;333883;29;91980;-90
2022/02/21 00:28:13;;;;;;;;;;;9.70;99.90;10.20;99853.00;;;;334174;29;83487;-91
2022/02/21 00:28:25;;;;;;;;;;;9.70;99.90;10.10;99859.00;;;;335062;29;89073;-91
2022/02/21 00:28:37;;;;;;;;;;;9.70;99.90;10.20;99857.00;;;;335810;28;83404;-91
2022/02/21 00:28:49;;;;;;;;;;;9.70;99.90;10.20;99854.00;;;;335992;28;92111;-91
2022/02/21 00:29:01;;;;;;;;;;;9.70;99.90;10.10;99848.00;;;;335571;29;83295;-90
2022/02/21 00:29:12;;;;;;;;;;;9.70;99.90;10.10;99849.00;;;;335134;29;90550;-91
2022/02/21 00:29:24;;;;;;;;;;;9.70;99.90;10.10;99844.00;;;;334163;29;83401;-91
2022/02/21 00:29:36;;;;;;;;;;;9.70;99.90;10.10;99846.00;;;;336437;28;90989;-91
2022/02/21 00:29:48;;;;;;;;;;;9.70;99.90;10.10;99846.00;;;;335397;29;83498;-91
2022/02/21 00:30:00;;;;;;;;;;;9.70;99.90;10.10;99845.00;;;;336328;28;90265;-91
2022/02/21 00:30:12;;;;;;;;;;;9.70;99.90;10.10;99833.00;;;;335459;29;82499;-91
2022/02/21 00:30:23;;;;;;;;;;;9.70;99.90;10.10;99844.00;;;;333723;29;91977;-91
2022/02/21 00:30:35;;;;;;;;;;;9.70;99.90;10.10;99835.00;;;;335800;28;82319;-91
2022/02/21 00:30:47;;;;;;;;;;;9.70;99.90;10.10;99838.00;;;;334996;28;92550;-91
2022/02/21 00:30:59;;;;;;;;;;;9.70;99.90;10.10;99832.00;;;;335451;29;83257;-91
2022/02/21 00:31:11;;;;;;;;;;;9.70;99.90;10.10;99839.00;;;;334933;29;91270;-91
2022/02/21 00:31:23;;;;;;;;;;;9.70;99.90;10.10;99837.00;;;;334194;29;83316;-91
2022/02/21 00:31:35;;;;;;;;;;;9.70;99.90;10.00;99837.00;;;;336036;28;90432;-91
2022/02/21 00:31:46;;;;;;;;;;;9.70;99.90;10.10;99837.00;;;;335512;29;83298;-91
2022/02/21 00:31:58;;;;;;;;;;;9.70;99.90;10.10;99834.00;;;;335014;29;90892;-91
2022/02/21 00:32:10;;;;;;;;;;;9.70;99.90;10.10;99831.00;;;;335468;29;82335;-91
2022/02/21 00:32:22;;;;;;;;;;;9.70;99.90;10.10;99830.00;;;;333767;29;91735;-91
2022/02/21 00:32:33;;;;;;;;;;;9.70;99.90;10.20;99830.00;;;;335513;29;82688;-91
2022/02/21 00:32:45;;;;;;;;;;;9.70;99.90;10.10;99831.00;;;;334949;29;91565;-91
2022/02/21 00:32:57;;;;;;;;;;;9.70;99.90;10.10;99829.00;;;;335577;29;82392;-91
2022/02/21 00:33:09;;;;;;;;;;;9.70;99.90;10.10;99839.00;;;;335083;29;90614;-91
2022/02/21 00:33:20;;;;;;;;;;;9.70;99.90;10.10;99833.00;;;;334177;29;83277;-90
2022/02/21 00:33:32;;;;;;;;;;;9.70;99.90;10.10;99823.00;;;;336215;28;89693;-91
2022/02/21 00:33:44;;;;;;;;;;;9.70;99.90;10.20;99838.00;;;;335050;29;83417;-91
2022/02/21 00:33:56;;;;;;;;;;;9.70;99.90;10.30;99830.00;;;;335048;29;91314;-91
2022/02/21 00:34:08;;;;;;;;;;;9.70;99.90;10.20;99834.00;;;;333608;29;82582;-91
2022/02/21 00:34:20;;;;;;;;;;;9.70;99.90;10.20;99838.00;;;;335084;29;92180;-91
2022/02/21 00:34:31;;;;;;;;;;;9.70;99.90;10.10;99830.00;;;;334197;29;83334;-91
2022/02/21 00:34:43;;;;;;;;;;;9.70;99.90;10.10;99840.00;;;;333554;29;91213;-91
2022/02/21 00:34:55;;;;;;;;;;;9.70;99.90;10.10;99837.00;;;;333935;29;83464;-91
2022/02/21 00:35:07;;;;;;;;;;;9.70;99.90;10.10;99839.00;;;;335016;29;91377;-91
2022/02/21 00:35:19;;;;;;;;;;;9.70;99.90;10.10;99836.00;;;;334219;29;82378;-91
2022/02/21 00:35:31;;;;;;;;;;;9.70;99.90;10.10;99833.00;;;;337508;28;90632;-91
2022/02/21 00:35:43;;;;;;;;;;;9.70;99.90;10.00;99832.00;;;;335437;28;83330;-91
2022/02/21 00:35:55;;;;;;;;;;;9.70;99.90;10.00;99831.00;;;;336303;28;91486;-91
2022/02/21 00:36:06;;;;;;;;;;;9.70;99.90;10.10;99840.00;;;;334119;29;82524;-90
2022/02/21 00:36:18;;;;;;;;;;;9.70;99.90;10.10;99825.00;;;;336338;28;91255;-91
2022/02/21 00:36:31;;;;;;;;;;;9.70;99.90;10.10;99831.00;;;;335360;29;83543;-91
2022/02/21 00:36:43;;;;;;;;;;;9.70;99.90;10.10;99832.00;;;;333436;29;91089;-91
2022/02/21 00:36:55;;;;;;;;;;;9.70;99.90;10.10;99829.00;;;;333997;29;83561;-91
2022/02/21 00:37:06;;;;;;;;;;;9.70;99.90;10.10;99839.00;;;;334203;29;91694;-91
2022/02/21 00:37:18;;;;;;;;;;;9.70;99.90;10.10;99834.00;;;;332807;29;83584;-91
2022/02/21 00:37:30;;;;;;;;;;;9.70;99.90;10.20;99836.00;;;;333820;29;89220;-91
2022/02/21 00:37:42;;;;;;;;;;;9.70;99.90;10.10;99826.00;;;;333993;29;83521;-91
2022/02/21 00:37:54;;;;;;;;;;;9.70;99.90;10.10;99828.00;;;;335101;29;91538;-91
2022/02/21 00:38:05;;;;;;;;;;;9.70;99.90;10.10;99829.00;;;;336900;28;82401;-90
2022/02/21 00:38:17;;;;;;;;;;;9.70;99.90;10.20;99828.00;;;;335074;29;90571;-91
2022/02/21 00:38:29;;;;;;;;;;;9.70;99.90;10.20;99821.00;;;;334100;29;83405;-91
2022/02/21 00:38:41;;;;;;;;;;;9.70;99.90;10.10;99832.00;;;;335048;29;91071;-90
2022/02/21 00:38:53;;;;;;;;;;;9.70;99.90;10.10;99823.00;;;;335525;29;83469;-91
2022/02/21 00:39:05;;;;;;;;;;;9.70;99.90;10.20;99832.00;;;;333793;29;90402;-91
2022/02/21 00:39:16;;;;;;;;;;;9.70;99.90;10.20;99823.00;;;;335490;29;82643;-91
2022/02/21 00:39:28;;;;;;;;;;;9.70;99.90;10.10;99827.00;;;;335138;29;90306;-91
2022/02/21 00:39:40;;;;;;;;;;;9.70;99.90;10.10;99828.00;;;;334346;29;83576;-91
2022/02/21 00:39:52;;;;;;;;;;;9.70;99.90;10.10;99827.00;;;;334896;29;91334;-91
2022/02/21 00:40:04;;;;;;;;;;;9.70;99.90;10.10;99834.00;;;;334062;29;83326;-91
2022/02/21 00:40:16;;;;;;;;;;;9.70;99.90;10.10;99829.00;;;;335159;29;88773;-91
2022/02/21 00:40:27;;;;;;;;;;;9.70;99.90;10.10;99827.00;;;;334239;29;82904;-91
2022/02/21 00:40:39;;;;;;;;;;;9.70;99.90;10.10;99826.00;;;;334893;29;91681;-91
2022/02/21 00:40:51;;;;;;;;;;;9.70;99.90;10.10;99831.00;;;;334179;29;83441;-91
2022/02/21 00:41:03;;;;;;;;;;;9.70;99.90;10.10;99826.00;;;;335975;28;90150;-90
2022/02/21 00:41:15;;;;;;;;;;;9.60;99.90;10.20;99829.00;;;;336915;28;82511;-91
2022/02/21 00:41:27;;;;;;;;;;;9.70;99.90;10.10;99828.00;;;;335053;29;90356;-91
2022/02/21 00:41:39;;;;;;;;;;;9.70;99.90;10.10;99829.00;;;;336893;28;82391;-91
2022/02/21 00:41:50;;;;;;;;;;;9.70;99.90;10.20;99830.00;;;;334966;29;90397;-91
2022/02/21 00:42:03;;;;;;;;;;;9.70;99.90;10.10;99829.00;;;;336759;28;83452;-91
2022/02/21 00:42:21;;;;;;;;;;;9.70;99.90;10.10;99830.00;;;;335039;29;91358;-91
2022/02/21 00:42:33;;;;;;;;;;;9.70;99.90;10.10;99827.00;;;;332538;29;83500;-91
2022/02/21 00:42:44;;;;;;;;;;;9.70;99.90;10.10;99819.00;;;;334420;29;92757;-91
2022/02/21 00:42:56;;;;;;;;;;;9.60;99.90;10.10;99822.00;;;;335444;29;83592;-91
2022/02/21 00:43:08;;;;;;;;;;;9.60;99.90;10.10;99827.00;;;;333637;29;91820;-91
2022/02/21 00:43:20;;;;;;;;;;;9.70;99.90;10.10;99817.00;;;;334224;29;83517;-91
2022/02/21 00:43:32;;;;;;;;;;;9.70;99.90;10.10;99822.00;;;;332498;29;91412;-91
2022/02/21 00:43:43;;;;;;;;;;;9.60;99.90;10.10;99821.00;;;;335198;29;82518;-91
2022/02/21 00:43:55;;;;;;;;;;;9.70;99.90;10.20;99818.00;;;;333656;29;88475;-91
2022/02/21 00:44:07;;;;;;;;;;;9.70;99.90;10.20;99809.00;;;;335528;29;82573;-90
2022/02/21 00:44:19;;;;;;;;;;;9.70;99.90;10.10;99818.00;;;;336345;28;91738;-91
2022/02/21 00:44:32;;;;;;;;;;;9.60;99.90;10.10;99809.00;;;;334202;29;83245;-91
2022/02/21 00:44:44;;;;;;;;;;;9.70;99.90;10.10;99812.00;;;;335001;29;91961;-90
2022/02/21 00:44:57;;;;;;;;;;;9.70;99.90;10.20;99822.00;;;;335393;28;83508;-91
2022/02/21 00:45:09;;;;;;;;;;;9.60;99.90;10.20;99820.00;;;;333664;29;91842;-91
2022/02/21 00:45:21;;;;;;;;;;;9.70;99.90;10.20;99813.00;;;;334381;29;82312;-91
2022/02/21 00:45:33;;;;;;;;;;;9.70;99.90;10.20;99812.00;;;;333654;29;90459;-90
2022/02/21 00:45:45;;;;;;;;;;;9.70;99.90;10.20;99809.00;;;;334326;29;83388;-90
2022/02/21 00:45:57;;;;;;;;;;;9.70;99.90;10.20;99818.00;;;;335008;29;90178;-91
2022/02/21 00:46:08;;;;;;;;;;;9.70;99.90;10.20;99803.00;;;;334454;29;83609;-91
2022/02/21 00:46:20;;;;;;;;;;;9.70;99.90;10.20;99805.00;;;;334818;29;90584;-91
2022/02/21 00:46:32;;;;;;;;;;;9.70;99.90;10.20;99805.00;;;;336763;28;83423;-91
2022/02/21 00:46:44;;;;;;;;;;;9.70;99.90;10.20;99798.00;;;;335043;29;92708;-91
2022/02/21 00:46:56;;;;;;;;;;;9.70;99.90;10.30;99805.00;;;;335330;29;82368;-91
2022/02/21 00:47:08;;;;;;;;;;;9.70;99.90;10.20;99798.00;;;;336287;28;91446;-91
2022/02/21 00:47:19;;;;;;;;;;;9.70;99.90;10.20;99805.00;;;;336829;28;82541;-91
2022/02/21 00:47:31;;;;;;;;;;;9.70;99.90;10.20;99804.00;;;;333645;29;91354;-91
2022/02/21 00:47:43;;;;;;;;;;;9.70;99.90;10.20;99802.00;;;;336763;28;83454;-91
2022/02/21 00:47:55;;;;;;;;;;;9.70;99.90;10.20;99808.00;;;;336314;28;91083;-90
2022/02/21 00:48:07;;;;;;;;;;;9.70;99.90;10.20;99807.00;;;;336758;28;82911;-91
2022/02/21 00:48:18;;;;;;;;;;;9.70;99.90;10.20;99804.00;;;;336388;28;91507;-91
2022/02/21 00:48:30;;;;;;;;;;;9.70;99.90;10.10;99803.00;;;;335082;29;83472;-91
2022/02/21 00:48:42;;;;;;;;;;;9.70;99.90;10.10;99805.00;;;;335131;28;92492;-91
2022/02/21 00:48:54;;;;;;;;;;;9.70;99.90;10.10;99803.00;;;;335478;28;83390;-91
2022/02/21 00:49:06;;;;;;;;;;;9.70;99.90;10.10;99804.00;;;;333725;29;91472;-91
2022/02/21 00:49:17;;;;;;;;;;;9.70;99.90;10.10;99807.00;;;;335475;29;83515;-91
2022/02/21 00:49:30;;;;;;;;;;;9.70;99.90;10.20;99807.00;;;;337634;28;90855;-91
2022/02/21 00:49:41;;;;;;;;;;;9.70;99.90;10.10;99807.00;;;;335460;29;82471;-91
2022/02/21 00:49:54;;;;;;;;;;;9.70;99.90;10.10;99809.00;;;;333687;29;91338;-92
2022/02/21 00:50:06;;;;;;;;;;;9.70;99.90;10.10;99811.00;;;;332979;29;83407;-91
2022/02/21 00:50:18;;;;;;;;;;;9.70;99.90;10.10;99794.00;;;;335034;29;90620;-91
2022/02/21 00:50:30;;;;;;;;;;;9.70;99.90;10.10;99805.00;;;;334129;29;83333;-91
2022/02/21 00:50:42;;;;;;;;;;;9.70;99.90;10.10;99801.00;;;;335042;29;92077;-92
2022/02/21 00:50:54;;;;;;;;;;;9.70;99.90;10.10;99798.00;;;;335548;29;82261;-91
2022/02/21 00:51:06;;;;;;;;;;;9.70;99.90;10.10;99795.00;;;;333484;29;90807;-90
2022/02/21 00:51:17;;;;;;;;;;;9.70;99.90;10.00;99799.00;;;;332842;29;83420;-91
2022/02/21 00:51:29;;;;;;;;;;;9.70;99.90;10.00;99795.00;;;;333645;29;90170;-91
2022/02/21 00:51:41;;;;;;;;;;;9.70;99.90;10.10;99809.00;;;;334601;29;82571;-90
2022/02/21 00:51:53;;;;;;;;;;;9.70;99.90;10.20;99805.00;;;;335247;28;88545;-91
2022/02/21 00:52:05;;;;;;;;;;;9.70;99.90;10.20;99802.00;;;;334101;29;83322;-91
2022/02/21 00:52:17;;;;;;;;;;;9.70;99.90;10.20;99810.00;;;;335118;29;90594;-91
2022/02/21 00:52:29;;;;;;;;;;;9.70;99.90;10.10;99804.00;;;;335326;29;83419;-91
2022/02/21 00:52:41;;;;;;;;;;;9.70;99.90;10.10;99796.00;;;;334873;29;92417;-92
2022/02/21 00:52:53;;;;;;;;;;;9.70;99.90;10.10;99800.00;;;;335451;29;82508;-91
2022/02/21 00:53:05;;;;;;;;;;;9.70;99.90;10.20;99803.00;;;;333531;29;90526;-91
2022/02/21 00:53:17;;;;;;;;;;;9.70;99.90;10.10;99801.00;;;;335446;29;83359;-91
2022/02/21 00:53:28;;;;;;;;;;;9.70;99.90;10.10;99798.00;;;;333771;29;90595;-91
2022/02/21 00:53:40;;;;;;;;;;;9.70;99.90;10.10;99791.00;;;;336716;28;82444;-91
2022/02/21 00:53:52;;;;;;;;;;;9.70;99.90;10.20;99792.00;;;;334823;29;90104;-91
2022/02/21 00:54:04;;;;;;;;;;;9.70;99.90;10.20;99791.00;;;;335383;29;83334;-91
2022/02/21 00:54:15;;;;;;;;;;;9.70;99.90;10.20;99796.00;;;;331236;29;90408;-91
2022/02/21 00:54:27;;;;;;;;;;;9.70;99.90;10.20;99790.00;;;;334123;29;83547;-91
2022/02/21 00:54:40;;;;;;;;;;;9.70;99.90;10.20;99797.00;;;;333271;29;91777;-90
2022/02/21 00:54:51;;;;;;;;;;;9.70;99.90;10.20;99786.00;;;;335391;29;82433;-91
2022/02/21 00:55:05;;;;;;;;;;;9.70;99.90;10.20;99792.00;;;;334838;29;91316;-91
2022/02/21 00:55:17;;;;;;;;;;;9.70;99.90;10.30;99788.00;;;;335421;29;83387;-91
2022/02/21 00:55:30;;;;;;;;;;;9.70;99.90;10.30;99789.00;;;;335013;29;91658;-91
2022/02/21 00:55:42;;;;;;;;;;;9.70;99.90;10.30;99786.00;;;;335435;29;83409;-91
2022/02/21 00:55:54;;;;;;;;;;;9.70;99.90;10.30;99790.00;;;;333772;29;90818;-91
2022/02/21 00:56:06;;;;;;;;;;;9.70;99.90;10.30;99782.00;;;;336554;28;83578;-91
2022/02/21 00:56:17;;;;;;;;;;;9.70;99.90;10.30;99785.00;;;;334777;28;91633;-91
2022/02/21 00:56:29;;;;;;;;;;;9.70;99.90;10.40;99788.00;;;;335356;29;82505;-91
2022/02/21 00:56:41;;;;;;;;;;;9.80;99.90;10.30;99790.00;;;;336348;28;92218;-91
2022/02/21 00:56:53;;;;;;;;;;;9.80;99.90;10.20;99785.00;;;;335462;29;82352;-91
2022/02/21 00:57:05;;;;;;;;;;;9.70;99.90;10.30;99785.00;;;;336252;28;90316;-91
2022/02/21 00:57:17;;;;;;;;;;;9.80;99.90;10.30;99782.00;;;;334108;29;83501;-91
2022/02/21 00:57:29;;;;;;;;;;;9.70;99.90;10.30;99779.00;;;;332570;29;90024;-91
2022/02/21 00:57:41;;;;;;;;;;;9.80;99.90;10.30;99784.00;;;;336436;28;83515;-91
2022/02/21 00:57:53;;;;;;;;;;;9.80;99.90;10.30;99787.00;;;;336271;28;91306;-92
2022/02/21 00:58:05;;;;;;;;;;;9.80;99.90;10.30;99784.00;;;;332820;29;83389;-91
2022/02/21 00:58:17;;;;;;;;;;;9.80;99.90;10.30;99789.00;;;;334987;29;91544;-91
2022/02/21 00:58:28;;;;;;;;;;;9.80;99.90;10.30;99775.00;;;;336689;28;83318;-91
2022/02/21 00:58:40;;;;;;;;;;;9.80;99.90;10.20;99784.00;;;;335870;28;92124;-92
2022/02/21 00:58:52;;;;;;;;;;;9.80;99.90;10.20;99777.00;;;;335543;29;82369;-93
2022/02/21 00:59:04;;;;;;;;;;;9.80;99.90;10.20;99787.00;;;;336337;28;91706;-92
2022/02/21 00:59:15;;;;;;;;;;;9.80;99.90;10.20;99782.00;;;;336777;28;82504;-91
2022/02/21 00:59:27;;;;;;;;;;;9.80;99.90;10.20;99785.00;;;;332536;29;90095;-91
2022/02/21 00:59:39;;;;;;;;;;;9.70;99.90;10.20;99779.00;;;;334222;29;83404;-91
2022/02/21 00:59:51;;;;;;;;;;;9.80;99.90;10.20;99783.00;;;;337655;28;90520;-91
2022/02/21 01:00:04;;;;;;;;;;;9.80;99.90;10.20;99779.00;;;;335366;29;83473;-91
2022/02/21 01:00:17;;;;;;;;;;;9.80;99.90;10.20;99789.00;;;;335024;29;90315;-91